MSC Rania — 3EEB3 — position and weather

sailwx.info

Track history (hours):
 
Tides and Currents Weather Stations Pressure Air Temp Water Temp Dewpoint Dewpoint Depression Visibility Wind Speed Wind Dir Waves Ship Positions

MSC Rania

Last reported at 2014-Aug-23 20:20 UTC. Time now 2014-Aug-28 15:25 UTC.
Position N 30°15' E 123°46'.

Length 332 m; draft 12.9 m.

Type: Ship (hazmat cat A). MMSI: 371752000.

Date/timePositionNaut miles runAvg speedWind from/ knotsBaromVisibWave heightAir tempDewpointWater temp
2014-Aug-23 20:20N 30°15' E 123°46'1518.8
2014-Aug-23 19:33N 30°05' E 123°32'79 4.9
2014-Aug-23 03:25N 29°54' E 122°02'0 0.1
2014-Aug-23 02:30N 29°54' E 122°02'0 0.0
2014-Aug-23 01:31N 29°54' E 122°02'0 0.0
2014-Aug-23 00:30N 29°54' E 122°02'0 0.0
2014-Aug-22 23:30N 29°54' E 122°02'0 0.0
2014-Aug-22 22:24N 29°54' E 122°02'1 1.0
2014-Aug-22 21:33N 29°54' E 122°03'9 8.8
2014-Aug-22 20:33N 29°51' E 122°12'9 8.6
2014-Aug-22 19:33N 29°45' E 122°19'6 5.6
2014-Aug-22 18:34N 29°45' E 122°26'6 5.7
2014-Aug-22 17:33N 29°45' E 122°32'6 6.3
2014-Aug-22 16:33N 29°47' E 122°39'8 7.9
2014-Aug-22 15:31N 29°52' E 122°47'19 9.0
2014-Aug-22 13:27N 30°07' E 122°60'8 9.0
2014-Aug-22 12:32N 30°15' E 123°03'9 9.1
2014-Aug-22 11:33N 30°24' E 123°02'9 8.9
2014-Aug-22 10:33N 30°32' E 123°02'9 9.3
2014-Aug-22 09:33N 30°41' E 122°58'10 9.5
2014-Aug-22 08:33N 30°50' E 122°55'9 9.3
2014-Aug-22 07:33N 30°59' E 122°52'10 9.1
2014-Aug-22 06:25N 31°05' E 122°42'1010.8
2014-Aug-22 05:30N 31°06' E 122°30'46 4.4
2014-Aug-21 19:05N 31°20' E 121°39'0 0.0
2014-Aug-21 17:17N 31°20' E 121°39'0 0.0
2014-Aug-21 12:10N 31°20' E 121°39'0 0.0
2014-Aug-21 08:28N 31°20' E 121°39'0 0.0
2014-Aug-21 06:19N 31°20' E 121°39'0 0.0
2014-Aug-21 04:28N 31°20' E 121°39'0 0.0
2014-Aug-21 02:22N 31°20' E 121°39'0 0.2
2014-Aug-21 01:33N 31°20' E 121°39'6 5.5
2014-Aug-21 00:33N 31°19' E 121°45'11 9.9
2014-Aug-20 23:24N 31°15' E 121°58'21 9.1
2014-Aug-20 21:04N 31°06' E 122°20'5 9.0
2014-Aug-20 20:32N 31°06' E 122°26'15 6.4
2014-Aug-20 18:12N 31°14' E 122°41'6 0.7
2014-Aug-20 08:32N 31°12' E 122°34'25 8.3
2014-Aug-20 05:33N 31°02' E 123°01'1413.9
2014-Aug-20 04:33N 30°51' E 123°10'42915.7
2014-Aug-19 01:19N 24°33' E 119°21'1819.4
2014-Aug-19 00:22N 24°25' E 119°03'4816.2
2014-Aug-18 21:25N 24°19' E 118°11'12 8.7
2014-Aug-18 20:04N 24°27' E 118°02'0 0.0
2014-Aug-18 19:32N 24°27' E 118°02'0 0.0
2014-Aug-18 18:20N 24°27' E 118°02'0 0.0
2014-Aug-18 15:20N 24°26' E 118°02'0 0.0
2014-Aug-18 14:13N 24°27' E 118°02'0 0.0
2014-Aug-18 13:31N 24°26' E 118°02'0 0.0
2014-Aug-18 12:20N 24°27' E 118°02'0 0.0
2014-Aug-18 11:32N 24°27' E 118°02'0 0.0
2014-Aug-18 10:31N 24°27' E 118°02'0 0.0
2014-Aug-18 09:31N 24°27' E 118°02'0 0.0
2014-Aug-18 08:31N 24°27' E 118°02'2 1.6
2014-Aug-18 07:33N 24°26' E 118°03'9 8.7
2014-Aug-18 06:33N 24°20' E 118°11'1010.4
2014-Aug-18 05:34N 24°13' E 118°18'1413.9
2014-Aug-18 04:33N 23°59' E 118°17'1514.7
2014-Aug-18 03:33N 23°46' E 118°08'1716.8
2014-Aug-18 02:33N 23°34' E 117°55'1818.2
2014-Aug-18 01:33N 23°22' E 117°41'207 6.3
2014-Aug-16 16:33N 22°19' E 114°07'  
2014-Aug-14 04:08N 22°06' E 114°15'  
Track history (hours):
 
Tides and Currents Weather Stations Pressure Air Temp Water Temp Dewpoint Dewpoint Depression Visibility Wind Speed Wind Dir Waves Ship Positions

MSC Rania

Last reported at 2014-Aug-23 20:20 UTC. Time now 2014-Aug-28 15:25 UTC.
Position N 30°15' E 123°46'.

Length 332 m; draft 12.9 m.

Type: Ship (hazmat cat A). MMSI: 371752000.

Date/timePositionNaut miles runAvg speedWind from/ knotsBaromVisibWave heightAir tempDewpointWater temp
2014-Aug-23 20:20N 30°15' E 123°46'1518.8
2014-Aug-23 19:33N 30°05' E 123°32'79 4.9
2014-Aug-23 03:25N 29°54' E 122°02'0 0.1
2014-Aug-23 02:30N 29°54' E 122°02'0 0.0
2014-Aug-23 01:31N 29°54' E 122°02'0 0.0
2014-Aug-23 00:30N 29°54' E 122°02'0 0.0
2014-Aug-22 23:30N 29°54' E 122°02'0 0.0
2014-Aug-22 22:24N 29°54' E 122°02'1 1.0
2014-Aug-22 21:33N 29°54' E 122°03'9 8.8
2014-Aug-22 20:33N 29°51' E 122°12'9 8.6
2014-Aug-22 19:33N 29°45' E 122°19'6 5.6
2014-Aug-22 18:34N 29°45' E 122°26'6 5.7
2014-Aug-22 17:33N 29°45' E 122°32'6 6.3
2014-Aug-22 16:33N 29°47' E 122°39'8 7.9
2014-Aug-22 15:31N 29°52' E 122°47'19 9.0
2014-Aug-22 13:27N 30°07' E 122°60'8 9.0
2014-Aug-22 12:32N 30°15' E 123°03'9 9.1
2014-Aug-22 11:33N 30°24' E 123°02'9 8.9
2014-Aug-22 10:33N 30°32' E 123°02'9 9.3
2014-Aug-22 09:33N 30°41' E 122°58'10 9.5
2014-Aug-22 08:33N 30°50' E 122°55'9 9.3
2014-Aug-22 07:33N 30°59' E 122°52'10 9.1
2014-Aug-22 06:25N 31°05' E 122°42'1010.8
2014-Aug-22 05:30N 31°06' E 122°30'46 4.4
2014-Aug-21 19:05N 31°20' E 121°39'0 0.0
2014-Aug-21 17:17N 31°20' E 121°39'0 0.0
2014-Aug-21 12:10N 31°20' E 121°39'0 0.0
2014-Aug-21 08:28N 31°20' E 121°39'0 0.0
2014-Aug-21 06:19N 31°20' E 121°39'0 0.0
2014-Aug-21 04:28N 31°20' E 121°39'0 0.0
2014-Aug-21 02:22N 31°20' E 121°39'0 0.2
2014-Aug-21 01:33N 31°20' E 121°39'6 5.5
2014-Aug-21 00:33N 31°19' E 121°45'11 9.9
2014-Aug-20 23:24N 31°15' E 121°58'21 9.1
2014-Aug-20 21:04N 31°06' E 122°20'5 9.0
2014-Aug-20 20:32N 31°06' E 122°26'15 6.4
2014-Aug-20 18:12N 31°14' E 122°41'6 0.7
2014-Aug-20 08:32N 31°12' E 122°34'25 8.3
2014-Aug-20 05:33N 31°02' E 123°01'1413.9
2014-Aug-20 04:33N 30°51' E 123°10'42915.7
2014-Aug-19 01:19N 24°33' E 119°21'1819.4
2014-Aug-19 00:22N 24°25' E 119°03'4816.2
2014-Aug-18 21:25N 24°19' E 118°11'12 8.7
2014-Aug-18 20:04N 24°27' E 118°02'0 0.0
2014-Aug-18 19:32N 24°27' E 118°02'0 0.0
2014-Aug-18 18:20N 24°27' E 118°02'0 0.0
2014-Aug-18 15:20N 24°26' E 118°02'0 0.0
2014-Aug-18 14:13N 24°27' E 118°02'0 0.0
2014-Aug-18 13:31N 24°26' E 118°02'0 0.0
2014-Aug-18 12:20N 24°27' E 118°02'0 0.0
2014-Aug-18 11:32N 24°27' E 118°02'0 0.0
2014-Aug-18 10:31N 24°27' E 118°02'0 0.0
2014-Aug-18 09:31N 24°27' E 118°02'0 0.0
2014-Aug-18 08:31N 24°27' E 118°02'2 1.6
2014-Aug-18 07:33N 24°26' E 118°03'9 8.7
2014-Aug-18 06:33N 24°20' E 118°11'1010.4
2014-Aug-18 05:34N 24°13' E 118°18'1413.9
2014-Aug-18 04:33N 23°59' E 118°17'1514.7
2014-Aug-18 03:33N 23°46' E 118°08'1716.8
2014-Aug-18 02:33N 23°34' E 117°55'1818.2
2014-Aug-18 01:33N 23°22' E 117°41'207 6.3
2014-Aug-16 16:33N 22°19' E 114°07'  
2014-Aug-14 04:08N 22°06' E 114°15'  

Dump ship's entire track history